sensor_id;sensor_type;location;lat;lon;timestamp;temperature;humidity
5683;DHT22;2864;49.220;8.654;2022-07-11T03:44:36;16.20;99.90
5683;DHT22;2864;49.220;8.654;2022-07-11T03:47:02;15.00;99.90
5683;DHT22;2864;49.220;8.654;2022-07-11T03:49:28;16.20;99.90
5683;DHT22;2864;49.220;8.654;2022-07-11T03:51:53;17.20;99.90
5683;DHT22;2864;49.220;8.654;2022-07-11T03:54:19;16.20;99.90
5683;DHT22;2864;49.220;8.654;2022-07-11T03:56:44;16.10;99.90
5683;DHT22;2864;49.220;8.654;2022-07-11T03:59:10;16.10;99.90
5683;DHT22;2864;49.220;8.654;2022-07-11T04:01:35;16.50;99.90
5683;DHT22;2864;49.220;8.654;2022-07-11T04:04:01;16.00;99.90
5683;DHT22;2864;49.220;8.654;2022-07-11T04:06:27;16.50;99.90
5683;DHT22;2864;49.220;8.654;2022-07-11T04:08:52;17.40;99.90
5683;DHT22;2864;49.220;8.654;2022-07-11T04:11:18;16.00;99.90
5683;DHT22;2864;49.220;8.654;2022-07-11T04:13:43;16.00;99.90
5683;DHT22;2864;49.220;8.654;2022-07-11T04:16:09;16.10;99.90
5683;DHT22;2864;49.220;8.654;2022-07-11T04:18:35;16.40;99.90
5683;DHT22;2864;49.220;8.654;2022-07-11T04:21:00;16.20;99.90
5683;DHT22;2864;49.220;8.654;2022-07-11T04:23:26;16.30;99.90
5683;DHT22;2864;49.220;8.654;2022-07-11T04:25:51;16.30;99.90
5683;DHT22;2864;49.220;8.654;2022-07-11T04:28:17;16.40;99.90
5683;DHT22;2864;49.220;8.654;2022-07-11T04:30:42;16.90;99.90
5683;DHT22;2864;49.220;8.654;2022-07-11T04:33:08;18.10;99.90
5683;DHT22;2864;49.220;8.654;2022-07-11T04:35:33;17.30;99.90
5683;DHT22;2864;49.220;8.654;2022-07-11T04:37:59;16.60;99.90
5683;DHT22;2864;49.220;8.654;2022-07-11T04:40:25;16.60;99.90
5683;DHT22;2864;49.220;8.654;2022-07-11T04:42:51;16.60;99.90
5683;DHT22;2864;49.220;8.654;2022-07-11T04:45:17;18.60;99.90
5683;DHT22;2864;49.220;8.654;2022-07-11T04:47:43;16.80;99.90
5683;DHT22;2864;49.220;8.654;2022-07-11T04:50:08;16.80;99.90
5683;DHT22;2864;49.220;8.654;2022-07-11T04:52:34;16.90;99.90
5683;DHT22;2864;49.220;8.654;2022-07-11T04:55:00;17.60;99.90
5683;DHT22;2864;49.220;8.654;2022-07-11T04:57:26;16.90;99.90
5683;DHT22;2864;49.220;8.654;2022-07-11T04:59:52;16.90;99.90
5683;DHT22;2864;49.220;8.654;2022-07-11T05:02:18;19.30;99.90
5683;DHT22;2864;49.220;8.654;2022-07-11T05:04:44;17.00;99.90
5683;DHT22;2864;49.220;8.654;2022-07-11T05:07:10;17.30;99.90
5683;DHT22;2864;49.220;8.654;2022-07-11T05:09:35;17.10;99.90
5683;DHT22;2864;49.220;8.654;2022-07-11T05:12:01;17.00;99.90
5683;DHT22;2864;49.220;8.654;2022-07-11T05:14:27;17.10;99.90
5683;DHT22;2864;49.220;8.654;2022-07-11T05:16:52;17.80;99.90
5683;DHT22;2864;49.220;8.654;2022-07-11T05:19:18;17.30;99.90
5683;DHT22;2864;49.220;8.654;2022-07-11T05:21:43;18.40;99.90
5683;DHT22;2864;49.220;8.654;2022-07-11T05:24:09;19.40;99.90
5683;DHT22;2864;49.220;8.654;2022-07-11T05:26:34;17.60;99.90
5683;DHT22;2864;49.220;8.654;2022-07-11T05:29:00;19.00;99.90
5683;DHT22;2864;49.220;8.654;2022-07-11T05:31:26;18.80;99.90
5683;DHT22;2864;49.220;8.654;2022-07-11T05:33:51;17.80;99.90
5683;DHT22;2864;49.220;8.654;2022-07-11T05:36:17;17.90;99.90
5683;DHT22;2864;49.220;8.654;2022-07-11T05:38:42;19.30;99.90
5683;DHT22;2864;49.220;8.654;2022-07-11T05:41:08;18.00;99.90
5683;DHT22;2864;49.220;8.654;2022-07-11T05:43:34;18.10;99.90
5683;DHT22;2864;49.220;8.654;2022-07-11T05:46:03;19.50;99.90
5683;DHT22;2864;49.220;8.654;2022-07-11T05:48:28;18.10;99.90
5683;DHT22;2864;49.220;8.654;2022-07-11T05:50:54;20.20;99.90
5683;DHT22;2864;49.220;8.654;2022-07-11T05:53:19;18.20;99.90
5683;DHT22;2864;49.220;8.654;2022-07-11T05:55:45;18.30;99.90
5683;DHT22;2864;49.220;8.654;2022-07-11T05:58:11;18.40;99.90
5683;DHT22;2864;49.220;8.654;2022-07-11T06:00:36;18.50;99.90
5683;DHT22;2864;49.220;8.654;2022-07-11T06:03:02;18.50;99.90
5683;DHT22;2864;49.220;8.654;2022-07-11T06:05:28;18.60;99.90
5683;DHT22;2864;49.220;8.654;2022-07-11T06:07:53;18.60;99.90
5683;DHT22;2864;49.220;8.654;2022-07-11T06:10:37;18.70;99.80
5683;DHT22;2864;49.220;8.654;2022-07-11T06:13:04;18.70;99.70
5683;DHT22;2864;49.220;8.654;2022-07-11T06:15:30;18.60;99.30
5683;DHT22;2864;49.220;8.654;2022-07-11T06:17:55;18.60;99.90
5683;DHT22;2864;49.220;8.654;2022-07-11T06:20:21;18.80;99.50
5683;DHT22;2864;49.220;8.654;2022-07-11T06:22:46;19.70;99.80
5683;DHT22;2864;49.220;8.654;2022-07-11T06:25:12;19.00;98.90
5683;DHT22;2864;49.220;8.654;2022-07-11T06:27:38;20.80;99.40
5683;DHT22;2864;49.220;8.654;2022-07-11T06:30:03;19.30;97.70
5683;DHT22;2864;49.220;8.654;2022-07-11T06:32:29;19.40;97.60
5683;DHT22;2864;49.220;8.654;2022-07-11T06:34:56;19.60;96.90
5683;DHT22;2864;49.220;8.654;2022-07-11T06:37:22;20.60;96.90
5683;DHT22;2864;49.220;8.654;2022-07-11T06:39:47;20.00;96.10
5683;DHT22;2864;49.220;8.654;2022-07-11T06:42:13;21.80;96.60
5683;DHT22;2864;49.220;8.654;2022-07-11T06:44:38;20.10;95.60
5683;DHT22;2864;49.220;8.654;2022-07-11T06:47:04;20.10;95.10
5683;DHT22;2864;49.220;8.654;2022-07-11T06:49:30;20.20;94.70
5683;DHT22;2864;49.220;8.654;2022-07-11T06:51:56;21.00;94.50
5683;DHT22;2864;49.220;8.654;2022-07-11T06:54:22;21.10;95.10
5683;DHT22;2864;49.220;8.654;2022-07-11T06:56:47;22.20;95.30
5683;DHT22;2864;49.220;8.654;2022-07-11T06:59:13;21.10;94.50
5683;DHT22;2864;49.220;8.654;2022-07-11T07:01:38;20.20;94.00
5683;DHT22;2864;49.220;8.654;2022-07-11T07:04:04;20.00;93.80
5683;DHT22;2864;49.220;8.654;2022-07-11T07:06:29;20.00;94.10
5683;DHT22;2864;49.220;8.654;2022-07-11T07:08:55;20.00;94.10
5683;DHT22;2864;49.220;8.654;2022-07-11T07:11:21;19.80;94.10
5683;DHT22;2864;49.220;8.654;2022-07-11T07:13:47;19.80;94.10
5683;DHT22;2864;49.220;8.654;2022-07-11T07:16:15;20.90;94.80
5683;DHT22;2864;49.220;8.654;2022-07-11T07:18:40;19.70;93.90
5683;DHT22;2864;49.220;8.654;2022-07-11T07:21:10;19.70;93.60
5683;DHT22;2864;49.220;8.654;2022-07-11T07:23:36;20.10;94.10
5683;DHT22;2864;49.220;8.654;2022-07-11T07:26:02;19.60;93.80
5683;DHT22;2864;49.220;8.654;2022-07-11T07:28:28;21.80;95.00
5683;DHT22;2864;49.220;8.654;2022-07-11T07:30:54;19.80;93.80
5683;DHT22;2864;49.220;8.654;2022-07-11T07:33:19;20.30;93.80
5683;DHT22;2864;49.220;8.654;2022-07-11T07:35:45;20.00;93.20
5683;DHT22;2864;49.220;8.654;2022-07-11T07:38:11;19.00;92.60
5683;DHT22;2864;49.220;8.654;2022-07-11T07:40:36;21.80;93.70
5683;DHT22;2864;49.220;8.654;2022-07-11T07:43:02;20.40;92.40
5683;DHT22;2864;49.220;8.654;2022-07-11T07:45:28;20.40;92.70
5683;DHT22;2864;49.220;8.654;2022-07-11T07:47:53;20.50;92.20
5683;DHT22;2864;49.220;8.654;2022-07-11T07:50:19;20.50;92.20
5683;DHT22;2864;49.220;8.654;2022-07-11T07:52:44;20.50;91.90
5683;DHT22;2864;49.220;8.654;2022-07-11T07:55:10;20.60;92.10
5683;DHT22;2864;49.220;8.654;2022-07-11T07:57:36;20.80;92.00
5683;DHT22;2864;49.220;8.654;2022-07-11T08:00:03;21.00;91.70
5683;DHT22;2864;49.220;8.654;2022-07-11T08:02:47;21.20;91.40
5683;DHT22;2864;49.220;8.654;2022-07-11T08:05:16;21.20;91.10
5683;DHT22;2864;49.220;8.654;2022-07-11T08:07:42;21.30;91.20
5683;DHT22;2864;49.220;8.654;2022-07-11T08:10:08;21.40;90.50
5683;DHT22;2864;49.220;8.654;2022-07-11T08:12:33;21.20;90.20
5683;DHT22;2864;49.220;8.654;2022-07-11T08:14:59;21.30;90.30
5683;DHT22;2864;49.220;8.654;2022-07-11T08:17:25;21.30;90.40
5683;DHT22;2864;49.220;8.654;2022-07-11T08:19:51;21.20;90.00
5683;DHT22;2864;49.220;8.654;2022-07-11T08:22:17;22.50;91.10
5683;DHT22;2864;49.220;8.654;2022-07-11T08:24:42;21.60;90.60
5683;DHT22;2864;49.220;8.654;2022-07-11T08:27:09;21.90;90.00
5683;DHT22;2864;49.220;8.654;2022-07-11T08:29:34;22.10;89.50
5683;DHT22;2864;49.220;8.654;2022-07-11T08:32:00;22.50;89.00
5683;DHT22;2864;49.220;8.654;2022-07-11T08:34:26;22.50;87.60
5683;DHT22;2864;49.220;8.654;2022-07-11T08:36:51;22.40;86.80
5683;DHT22;2864;49.220;8.654;2022-07-11T08:39:17;22.80;86.60
5683;DHT22;2864;49.220;8.654;2022-07-11T08:41:43;22.10;86.70
5683;DHT22;2864;49.220;8.654;2022-07-11T08:44:12;22.30;86.90
5683;DHT22;2864;49.220;8.654;2022-07-11T08:46:40;22.40;87.10
5683;DHT22;2864;49.220;8.654;2022-07-11T08:49:08;22.50;85.70
5683;DHT22;2864;49.220;8.654;2022-07-11T08:51:36;23.10;86.20
5683;DHT22;2864;49.220;8.654;2022-07-11T08:54:03;22.50;85.40
5683;DHT22;2864;49.220;8.654;2022-07-11T08:56:29;24.10;85.50
5683;DHT22;2864;49.220;8.654;2022-07-11T08:58:57;24.20;85.30
5683;DHT22;2864;49.220;8.654;2022-07-11T09:01:34;23.30;83.00
5683;DHT22;2864;49.220;8.654;2022-07-11T09:04:02;23.60;82.10
5683;DHT22;2864;49.220;8.654;2022-07-11T09:06:29;23.40;82.80
5683;DHT22;2864;49.220;8.654;2022-07-11T09:08:59;23.40;81.70
5683;DHT22;2864;49.220;8.654;2022-07-11T09:11:25;25.40;83.30
5683;DHT22;2864;49.220;8.654;2022-07-11T09:13:51;23.50;81.50
5683;DHT22;2864;49.220;8.654;2022-07-11T09:16:17;23.50;80.40
5683;DHT22;2864;49.220;8.654;2022-07-11T09:18:44;23.60;80.80
5683;DHT22;2864;49.220;8.654;2022-07-11T09:21:12;23.80;80.90
5683;DHT22;2864;49.220;8.654;2022-07-11T09:23:59;23.90;80.30
5683;DHT22;2864;49.220;8.654;2022-07-11T09:26:48;23.80;79.10
5683;DHT22;2864;49.220;8.654;2022-07-11T09:29:16;23.80;80.10
5683;DHT22;2864;49.220;8.654;2022-07-11T09:31:44;24.10;79.30
5683;DHT22;2864;49.220;8.654;2022-07-11T09:34:15;23.80;79.90
5683;DHT22;2864;49.220;8.654;2022-07-11T09:36:47;24.80;79.20
5683;DHT22;2864;49.220;8.654;2022-07-11T09:39:17;24.40;78.80
5683;DHT22;2864;49.220;8.654;2022-07-11T09:41:44;24.80;76.40
5683;DHT22;2864;49.220;8.654;2022-07-11T09:44:23;24.40;77.10
5683;DHT22;2864;49.220;8.654;2022-07-11T09:46:51;24.80;76.80
5683;DHT22;2864;49.220;8.654;2022-07-11T09:49:35;24.70;77.80
5683;DHT22;2864;49.220;8.654;2022-07-11T09:52:12;25.00;76.80
5683;DHT22;2864;49.220;8.654;2022-07-11T09:54:58;24.80;76.30
5683;DHT22;2864;49.220;8.654;2022-07-11T09:57:38;24.70;74.20
5683;DHT22;2864;49.220;8.654;2022-07-11T10:00:07;25.50;75.20
5683;DHT22;2864;49.220;8.654;2022-07-11T10:02:33;24.50;73.80
5683;DHT22;2864;49.220;8.654;2022-07-11T10:04:59;25.10;73.70
5683;DHT22;2864;49.220;8.654;2022-07-11T10:07:26;24.40;73.50
5683;DHT22;2864;49.220;8.654;2022-07-11T10:09:52;24.30;74.10
5683;DHT22;2864;49.220;8.654;2022-07-11T10:12:17;24.20;73.40
5683;DHT22;2864;49.220;8.654;2022-07-11T10:14:45;24.70;75.00
5683;DHT22;2864;49.220;8.654;2022-07-11T10:17:26;24.80;74.00
5683;DHT22;2864;49.220;8.654;2022-07-11T10:22:31;25.60;73.70
5683;DHT22;2864;49.220;8.654;2022-07-11T10:27:49;25.50;72.40
5683;DHT22;2864;49.220;8.654;2022-07-11T10:30:40;25.30;73.40
5683;DHT22;2864;49.220;8.654;2022-07-11T10:33:06;25.20;72.60
5683;DHT22;2864;49.220;8.654;2022-07-11T10:35:31;25.40;72.50
5683;DHT22;2864;49.220;8.654;2022-07-11T10:37:57;27.50;75.10
5683;DHT22;2864;49.220;8.654;2022-07-11T10:40:53;25.10;73.70
5683;DHT22;2864;49.220;8.654;2022-07-11T10:45:58;25.30;72.50
5683;DHT22;2864;49.220;8.654;2022-07-11T10:48:26;25.20;72.90
5683;DHT22;2864;49.220;8.654;2022-07-11T10:51:04;25.20;72.10
5683;DHT22;2864;49.220;8.654;2022-07-11T10:53:39;25.10;73.00
5683;DHT22;2864;49.220;8.654;2022-07-11T10:59:17;25.70;73.40
5683;DHT22;2864;49.220;8.654;2022-07-11T11:02:08;26.00;71.60
5683;DHT22;2864;49.220;8.654;2022-07-11T11:05:03;26.00;71.00
5683;DHT22;2864;49.220;8.654;2022-07-11T11:07:43;26.20;71.40
5683;DHT22;2864;49.220;8.654;2022-07-11T11:23:31;26.50;70.70
5683;DHT22;2864;49.220;8.654;2022-07-11T11:26:19;26.60;69.50
5683;DHT22;2864;49.220;8.654;2022-07-11T11:28:58;26.70;68.50
5683;DHT22;2864;49.220;8.654;2022-07-11T11:31:25;26.90;68.30
5683;DHT22;2864;49.220;8.654;2022-07-11T11:33:51;27.60;68.60
5683;DHT22;2864;49.220;8.654;2022-07-11T11:36:18;27.00;67.30
5683;DHT22;2864;49.220;8.654;2022-07-11T11:41:14;26.70;68.10
5683;DHT22;2864;49.220;8.654;2022-07-11T11:43:44;26.50;68.00
5683;DHT22;2864;49.220;8.654;2022-07-11T11:46:12;26.50;67.80
5683;DHT22;2864;49.220;8.654;2022-07-11T11:48:40;27.10;68.60
5683;DHT22;2864;49.220;8.654;2022-07-11T11:51:15;27.00;66.20
5683;DHT22;2864;49.220;8.654;2022-07-11T11:53:46;27.00;66.10
5683;DHT22;2864;49.220;8.654;2022-07-11T11:58:44;26.90;67.10
5683;DHT22;2864;49.220;8.654;2022-07-11T12:01:11;26.80;67.00
5683;DHT22;2864;49.220;8.654;2022-07-11T12:03:56;26.70;66.70
5683;DHT22;2864;49.220;8.654;2022-07-11T12:06:24;27.20;66.30
5683;DHT22;2864;49.220;8.654;2022-07-11T12:08:50;27.40;65.40
5683;DHT22;2864;49.220;8.654;2022-07-11T12:11:16;27.60;65.40
5683;DHT22;2864;49.220;8.654;2022-07-11T12:13:43;27.60;64.50
5683;DHT22;2864;49.220;8.654;2022-07-11T12:16:16;28.00;64.40
5683;DHT22;2864;49.220;8.654;2022-07-11T12:19:05;27.90;65.80
5683;DHT22;2864;49.220;8.654;2022-07-11T12:21:36;27.80;64.70
5683;DHT22;2864;49.220;8.654;2022-07-11T12:24:04;27.50;64.80
5683;DHT22;2864;49.220;8.654;2022-07-11T12:26:33;26.70;65.10
5683;DHT22;2864;49.220;8.654;2022-07-11T12:31:49;26.60;66.10
5683;DHT22;2864;49.220;8.654;2022-07-11T12:34:26;27.10;66.00
5683;DHT22;2864;49.220;8.654;2022-07-11T12:37:16;27.30;65.30
5683;DHT22;2864;49.220;8.654;2022-07-11T12:39:50;27.90;64.00
5683;DHT22;2864;49.220;8.654;2022-07-11T12:42:31;27.70;64.50
5683;DHT22;2864;49.220;8.654;2022-07-11T12:45:08;27.80;64.00
5683;DHT22;2864;49.220;8.654;2022-07-11T12:47:36;27.50;64.30
5683;DHT22;2864;49.220;8.654;2022-07-11T12:52:46;27.50;64.30
5683;DHT22;2864;49.220;8.654;2022-07-11T12:55:24;27.70;64.60
5683;DHT22;2864;49.220;8.654;2022-07-11T13:00:32;28.10;63.30
5683;DHT22;2864;49.220;8.654;2022-07-11T13:06:07;27.50;64.50
5683;DHT22;2864;49.220;8.654;2022-07-11T13:08:35;27.00;64.20
5683;DHT22;2864;49.220;8.654;2022-07-11T13:11:15;27.30;65.00
5683;DHT22;2864;49.220;8.654;2022-07-11T13:13:42;27.90;63.20
5683;DHT22;2864;49.220;8.654;2022-07-11T13:16:09;28.40;63.10
5683;DHT22;2864;49.220;8.654;2022-07-11T13:18:35;28.20;63.00
5683;DHT22;2864;49.220;8.654;2022-07-11T13:21:01;27.90;62.60
5683;DHT22;2864;49.220;8.654;2022-07-11T13:23:27;27.60;63.40
5683;DHT22;2864;49.220;8.654;2022-07-11T13:25:53;27.50;64.30
5683;DHT22;2864;49.220;8.654;2022-07-11T13:28:19;27.70;63.60
5683;DHT22;2864;49.220;8.654;2022-07-11T13:30:45;28.90;62.90
5683;DHT22;2864;49.220;8.654;2022-07-11T13:33:12;29.40;61.10
5683;DHT22;2864;49.220;8.654;2022-07-11T13:35:37;30.10;60.90
5683;DHT22;2864;49.220;8.654;2022-07-11T13:38:03;31.00;59.60
5683;DHT22;2864;49.220;8.654;2022-07-11T13:40:28;32.10;58.70
5683;DHT22;2864;49.220;8.654;2022-07-11T13:42:55;32.00;58.20
5683;DHT22;2864;49.220;8.654;2022-07-11T13:45:22;31.50;58.60
5683;DHT22;2864;49.220;8.654;2022-07-11T13:47:49;31.00;58.70
5683;DHT22;2864;49.220;8.654;2022-07-11T13:50:15;30.60;58.60
5683;DHT22;2864;49.220;8.654;2022-07-11T13:52:41;30.50;58.40
5683;DHT22;2864;49.220;8.654;2022-07-11T13:55:12;30.20;58.20
5683;DHT22;2864;49.220;8.654;2022-07-11T13:57:37;30.00;58.80
5683;DHT22;2864;49.220;8.654;2022-07-11T14:00:04;29.70;60.70
5683;DHT22;2864;49.220;8.654;2022-07-11T14:02:31;29.40;59.60
5683;DHT22;2864;49.220;8.654;2022-07-11T14:04:57;29.00;60.10
5683;DHT22;2864;49.220;8.654;2022-07-11T14:07:23;28.80;59.70
5683;DHT22;2864;49.220;8.654;2022-07-11T14:09:49;28.50;60.40
5683;DHT22;2864;49.220;8.654;2022-07-11T14:12:15;28.70;60.50
5683;DHT22;2864;49.220;8.654;2022-07-11T14:14:42;29.60;59.80
5683;DHT22;2864;49.220;8.654;2022-07-11T14:17:07;29.90;58.50
5683;DHT22;2864;49.220;8.654;2022-07-11T14:19:33;30.50;58.30
5683;DHT22;2864;49.220;8.654;2022-07-11T14:22:03;30.80;58.20
5683;DHT22;2864;49.220;8.654;2022-07-11T14:24:33;30.90;57.50
5683;DHT22;2864;49.220;8.654;2022-07-11T14:27:00;30.90;57.20
5683;DHT22;2864;49.220;8.654;2022-07-11T14:29:27;31.00;57.40
5683;DHT22;2864;49.220;8.654;2022-07-11T14:31:54;31.50;57.40
5683;DHT22;2864;49.220;8.654;2022-07-11T14:34:26;31.70;57.00
5683;DHT22;2864;49.220;8.654;2022-07-11T14:36:51;32.00;56.50
5683;DHT22;2864;49.220;8.654;2022-07-11T14:39:17;33.20;55.40
5683;DHT22;2864;49.220;8.654;2022-07-11T14:41:43;33.90;55.30
5683;DHT22;2864;49.220;8.654;2022-07-11T14:44:11;33.30;54.60
5683;DHT22;2864;49.220;8.654;2022-07-11T14:46:37;33.60;54.20
5683;DHT22;2864;49.220;8.654;2022-07-11T14:49:03;31.80;55.60
5683;DHT22;2864;49.220;8.654;2022-07-11T14:51:31;30.70;56.50
5683;DHT22;2864;49.220;8.654;2022-07-11T14:53:57;29.90;56.60
5683;DHT22;2864;49.220;8.654;2022-07-11T14:56:22;28.90;57.50
5683;DHT22;2864;49.220;8.654;2022-07-11T14:58:48;28.60;59.10
5683;DHT22;2864;49.220;8.654;2022-07-11T15:01:13;27.60;59.40
5683;DHT22;2864;49.220;8.654;2022-07-11T15:03:39;28.50;58.80
5683;DHT22;2864;49.220;8.654;2022-07-11T15:06:08;29.80;57.90
5683;DHT22;2864;49.220;8.654;2022-07-11T15:08:35;31.40;57.10
5683;DHT22;2864;49.220;8.654;2022-07-11T15:11:19;32.90;55.40
5683;DHT22;2864;49.220;8.654;2022-07-11T15:14:04;34.40;54.40
5683;DHT22;2864;49.220;8.654;2022-07-11T15:16:30;35.20;53.50
5683;DHT22;2864;49.220;8.654;2022-07-11T15:18:58;36.00;52.00
5683;DHT22;2864;49.220;8.654;2022-07-11T15:21:23;36.60;53.00
5683;DHT22;2864;49.220;8.654;2022-07-11T15:23:50;35.10;52.60
5683;DHT22;2864;49.220;8.654;2022-07-11T15:26:15;35.70;52.60
5683;DHT22;2864;49.220;8.654;2022-07-11T15:28:42;34.60;52.10
5683;DHT22;2864;49.220;8.654;2022-07-11T15:31:09;32.90;53.10
5683;DHT22;2864;49.220;8.654;2022-07-11T15:33:34;32.90;53.20
5683;DHT22;2864;49.220;8.654;2022-07-11T15:36:00;33.40;52.40
5683;DHT22;2864;49.220;8.654;2022-07-11T15:38:25;34.20;53.20
5683;DHT22;2864;49.220;8.654;2022-07-11T15:40:51;34.50;53.00
5683;DHT22;2864;49.220;8.654;2022-07-11T15:43:17;35.10;53.50
5683;DHT22;2864;49.220;8.654;2022-07-11T15:45:42;35.10;53.40
5683;DHT22;2864;49.220;8.654;2022-07-11T15:48:08;33.50;53.40
5683;DHT22;2864;49.220;8.654;2022-07-11T15:50:34;32.20;55.00
5683;DHT22;2864;49.220;8.654;2022-07-11T15:53:00;31.30;55.00
5683;DHT22;2864;49.220;8.654;2022-07-11T15:55:26;30.90;56.00
5683;DHT22;2864;49.220;8.654;2022-07-11T15:57:52;32.10;54.70
5683;DHT22;2864;49.220;8.654;2022-07-11T16:00:18;32.90;54.30
5683;DHT22;2864;49.220;8.654;2022-07-11T16:02:45;34.10;53.30
5683;DHT22;2864;49.220;8.654;2022-07-11T16:05:11;34.70;52.90
5683;DHT22;2864;49.220;8.654;2022-07-11T16:07:37;34.10;52.50
5683;DHT22;2864;49.220;8.654;2022-07-11T16:10:03;34.50;53.10
5683;DHT22;2864;49.220;8.654;2022-07-11T16:12:30;35.10;53.50
5683;DHT22;2864;49.220;8.654;2022-07-11T16:14:56;35.80;52.40
5683;DHT22;2864;49.220;8.654;2022-07-11T16:17:22;37.40;52.00
5683;DHT22;2864;49.220;8.654;2022-07-11T16:19:48;38.30;50.60
5683;DHT22;2864;49.220;8.654;2022-07-11T16:22:13;38.20;50.70
5683;DHT22;2864;49.220;8.654;2022-07-11T16:24:40;37.50;51.20
5683;DHT22;2864;49.220;8.654;2022-07-11T16:27:05;36.60;51.30
5683;DHT22;2864;49.220;8.654;2022-07-11T16:29:31;36.40;51.70
5683;DHT22;2864;49.220;8.654;2022-07-11T16:31:56;37.10;51.00
5683;DHT22;2864;49.220;8.654;2022-07-11T16:34:22;37.80;50.00
5683;DHT22;2864;49.220;8.654;2022-07-11T16:36:48;37.60;50.10
5683;DHT22;2864;49.220;8.654;2022-07-11T16:39:14;35.60;51.20
5683;DHT22;2864;49.220;8.654;2022-07-11T16:41:58;34.30;52.00
5683;DHT22;2864;49.220;8.654;2022-07-11T16:44:42;33.90;52.30
5683;DHT22;2864;49.220;8.654;2022-07-11T16:47:08;34.30;52.80
5683;DHT22;2864;49.220;8.654;2022-07-11T16:49:34;34.80;52.70
5683;DHT22;2864;49.220;8.654;2022-07-11T16:51:59;33.90;52.80
5683;DHT22;2864;49.220;8.654;2022-07-11T16:54:25;32.20;53.70
5683;DHT22;2864;49.220;8.654;2022-07-11T16:56:51;31.20;54.70
5683;DHT22;2864;49.220;8.654;2022-07-11T16:59:17;30.70;55.60
5683;DHT22;2864;49.220;8.654;2022-07-11T17:01:42;31.00;54.60
5683;DHT22;2864;49.220;8.654;2022-07-11T17:04:08;31.70;54.30
5683;DHT22;2864;49.220;8.654;2022-07-11T17:09:57;32.60;53.50
5683;DHT22;2864;49.220;8.654;2022-07-11T17:12:23;32.70;53.50
5683;DHT22;2864;49.220;8.654;2022-07-11T17:14:48;31.90;54.00
5683;DHT22;2864;49.220;8.654;2022-07-11T17:17:14;31.20;54.40
5683;DHT22;2864;49.220;8.654;2022-07-11T17:19:39;30.60;54.80
5683;DHT22;2864;49.220;8.654;2022-07-11T17:22:06;29.90;55.60
5683;DHT22;2864;49.220;8.654;2022-07-11T17:24:32;29.90;56.20
5683;DHT22;2864;49.220;8.654;2022-07-11T17:26:58;29.70;56.10
5683;DHT22;2864;49.220;8.654;2022-07-11T17:29:24;29.30;56.10
5683;DHT22;2864;49.220;8.654;2022-07-11T17:31:49;28.50;56.70
5683;DHT22;2864;49.220;8.654;2022-07-11T17:34:15;27.90;57.30
5683;DHT22;2864;49.220;8.654;2022-07-11T17:36:41;27.50;57.80
5683;DHT22;2864;49.220;8.654;2022-07-11T17:39:07;27.30;57.50
5683;DHT22;2864;49.220;8.654;2022-07-11T17:41:33;28.10;57.60
5683;DHT22;2864;49.220;8.654;2022-07-11T17:43:59;28.40;57.10
5683;DHT22;2864;49.220;8.654;2022-07-11T17:46:25;28.20;56.80
5683;DHT22;2864;49.220;8.654;2022-07-11T17:48:51;28.00;57.90
5683;DHT22;2864;49.220;8.654;2022-07-11T17:51:16;28.30;58.10
5683;DHT22;2864;49.220;8.654;2022-07-11T17:53:43;27.60;57.60
5683;DHT22;2864;49.220;8.654;2022-07-11T17:56:08;27.20;58.30
5683;DHT22;2864;49.220;8.654;2022-07-11T17:58:34;27.00;58.70
5683;DHT22;2864;49.220;8.654;2022-07-11T18:01:00;26.70;58.70
5683;DHT22;2864;49.220;8.654;2022-07-11T18:03:28;26.40;58.90
5683;DHT22;2864;49.220;8.654;2022-07-11T18:05:57;26.10;59.40
5683;DHT22;2864;49.220;8.654;2022-07-11T18:08:23;25.80;59.80
5683;DHT22;2864;49.220;8.654;2022-07-11T18:10:48;26.30;60.30
5683;DHT22;2864;49.220;8.654;2022-07-11T18:13:14;25.50;61.00
5683;DHT22;2864;49.220;8.654;2022-07-11T18:15:39;25.30;61.00
5683;DHT22;2864;49.220;8.654;2022-07-11T18:18:05;26.80;63.00
5683;DHT22;2864;49.220;8.654;2022-07-11T18:20:31;24.90;61.60
5683;DHT22;2864;49.220;8.654;2022-07-11T18:22:56;25.10;62.00
5683;DHT22;2864;49.220;8.654;2022-07-11T18:25:22;24.70;62.60
5683;DHT22;2864;49.220;8.654;2022-07-11T18:27:48;24.60;62.30
5683;DHT22;2864;49.220;8.654;2022-07-11T18:30:13;25.00;62.40
5683;DHT22;2864;49.220;8.654;2022-07-11T18:32:39;25.10;62.50
5683;DHT22;2864;49.220;8.654;2022-07-11T18:35:05;24.30;61.80
5683;DHT22;2864;49.220;8.654;2022-07-11T18:37:32;24.20;62.90
5683;DHT22;2864;49.220;8.654;2022-07-11T18:39:58;24.10;63.50
5683;DHT22;2864;49.220;8.654;2022-07-11T18:42:42;23.90;62.80
5683;DHT22;2864;49.220;8.654;2022-07-11T18:45:08;23.80;62.60
5683;DHT22;2864;49.220;8.654;2022-07-11T18:47:35;23.80;62.80
5683;DHT22;2864;49.220;8.654;2022-07-11T18:50:01;23.70;62.80
5683;DHT22;2864;49.220;8.654;2022-07-11T18:52:26;23.50;62.50
5683;DHT22;2864;49.220;8.654;2022-07-11T18:54:52;23.60;64.00
5683;DHT22;2864;49.220;8.654;2022-07-11T18:57:20;23.50;64.30
5683;DHT22;2864;49.220;8.654;2022-07-11T18:59:47;23.30;65.10
5683;DHT22;2864;49.220;8.654;2022-07-11T19:02:14;23.10;64.90
5683;DHT22;2864;49.220;8.654;2022-07-11T19:04:40;23.00;64.80
5683;DHT22;2864;49.220;8.654;2022-07-11T19:07:06;22.90;65.40
5683;DHT22;2864;49.220;8.654;2022-07-11T19:09:32;22.80;65.50
5683;DHT22;2864;49.220;8.654;2022-07-11T19:11:57;22.70;66.00
5683;DHT22;2864;49.220;8.654;2022-07-11T19:14:23;22.60;66.00
5683;DHT22;2864;49.220;8.654;2022-07-11T19:16:48;22.50;65.80
5683;DHT22;2864;49.220;8.654;2022-07-11T19:19:14;22.40;66.70
5683;DHT22;2864;49.220;8.654;2022-07-11T19:21:40;21.00;65.50
5683;DHT22;2864;49.220;8.654;2022-07-11T19:24:06;23.20;68.50
5683;DHT22;2864;49.220;8.654;2022-07-11T19:26:36;22.10;68.10
5683;DHT22;2864;49.220;8.654;2022-07-11T19:29:02;23.50;70.20
5683;DHT22;2864;49.220;8.654;2022-07-11T19:31:28;21.60;69.60
5683;DHT22;2864;49.220;8.654;2022-07-11T19:33:54;21.40;71.10
5683;DHT22;2864;49.220;8.654;2022-07-11T19:36:19;21.20;72.90
5683;DHT22;2864;49.220;8.654;2022-07-11T19:38:45;20.90;74.70
5683;DHT22;2864;49.220;8.654;2022-07-11T19:41:18;20.80;76.10
5683;DHT22;2864;49.220;8.654;2022-07-11T19:43:45;20.70;77.50
5683;DHT22;2864;49.220;8.654;2022-07-11T19:46:11;20.60;78.20
5683;DHT22;2864;49.220;8.654;2022-07-11T19:48:37;20.50;79.50
5683;DHT22;2864;49.220;8.654;2022-07-11T19:51:03;20.40;81.00
5683;DHT22;2864;49.220;8.654;2022-07-11T19:53:28;20.40;82.50
5683;DHT22;2864;49.220;8.654;2022-07-11T19:55:54;20.20;82.90
5683;DHT22;2864;49.220;8.654;2022-07-11T19:58:38;20.10;84.10
5683;DHT22;2864;49.220;8.654;2022-07-11T20:01:04;20.00;85.70
5683;DHT22;2864;49.220;8.654;2022-07-11T20:03:30;19.90;87.20
5683;DHT22;2864;49.220;8.654;2022-07-11T20:05:57;19.70;88.70
5683;DHT22;2864;49.220;8.654;2022-07-11T20:08:23;19.60;89.50
5683;DHT22;2864;49.220;8.654;2022-07-11T20:10:48;19.50;90.10
5683;DHT22;2864;49.220;8.654;2022-07-11T20:13:14;19.40;89.90
5683;DHT22;2864;49.220;8.654;2022-07-11T20:15:39;19.30;89.40
5683;DHT22;2864;49.220;8.654;2022-07-11T20:18:05;19.30;89.10
5683;DHT22;2864;49.220;8.654;2022-07-11T20:20:31;19.20;88.50
5683;DHT22;2864;49.220;8.654;2022-07-11T20:22:57;19.20;89.60
5683;DHT22;2864;49.220;8.654;2022-07-11T20:25:22;19.00;90.20
5683;DHT22;2864;49.220;8.654;2022-07-11T20:27:48;18.90;90.50
5683;DHT22;2864;49.220;8.654;2022-07-11T20:30:14;18.80;91.20
5683;DHT22;2864;49.220;8.654;2022-07-11T20:32:40;18.80;91.60